createdAt,value
2017-11-17T00:02:08.144Z,91.10
2017-11-17T00:04:36.203Z,90.30
2017-11-17T00:07:05.019Z,90.50
2017-11-17T00:09:33.107Z,90.60
2017-11-17T00:12:01.173Z,90.70
2017-11-17T00:16:58.570Z,90.50
2017-11-17T00:19:27.412Z,90.70
2017-11-17T00:21:55.495Z,90.60
2017-11-17T00:24:23.560Z,90.90
2017-11-17T00:26:52.018Z,90.70
2017-11-17T00:29:21.220Z,90.90
2017-11-17T00:31:50.805Z,91.00
2017-11-17T00:34:18.868Z,90.80
2017-11-17T00:36:46.943Z,90.80
2017-11-17T00:39:15.397Z,90.50
2017-11-17T00:41:43.454Z,90.70
2017-11-17T00:44:11.524Z,90.70
2017-11-17T00:46:39.594Z,90.80
2017-11-17T00:49:07.666Z,91.00
2017-11-17T00:51:36.491Z,91.30
2017-11-17T00:54:04.570Z,91.30
2017-11-17T00:56:32.652Z,90.80
2017-11-17T00:59:00.802Z,90.90
2017-11-17T01:01:29.956Z,91.00
2017-11-17T01:03:58.790Z,90.90
2017-11-17T01:06:27.618Z,90.50
2017-11-17T01:08:56.455Z,90.80
2017-11-17T01:11:24.520Z,90.80
2017-11-17T01:13:52.604Z,91.00
2017-11-17T01:16:20.660Z,91.20
2017-11-17T01:18:48.724Z,91.30
2017-11-17T01:21:16.796Z,91.10
2017-11-17T01:26:14.976Z,91.10
2017-11-17T01:28:43.037Z,91.40
2017-11-17T01:31:11.872Z,91.50
2017-11-17T01:33:41.452Z,91.10
2017-11-17T01:38:38.843Z,91.40
2017-11-17T01:41:06.912Z,91.40
2017-11-17T01:43:34.986Z,91.50
2017-11-17T01:46:03.052Z,91.40
2017-11-17T01:48:31.116Z,91.60
2017-11-17T01:50:59.191Z,91.60
2017-11-17T01:53:27.258Z,91.60
2017-11-17T01:55:55.320Z,91.60
2017-11-17T01:58:23.390Z,91.40
2017-11-17T02:00:52.228Z,91.40
2017-11-17T02:03:20.304Z,91.40
2017-11-17T02:05:48.364Z,91.40
2017-11-17T02:08:16.444Z,91.40
2017-11-17T02:10:44.500Z,91.40
2017-11-17T02:13:12.563Z,91.60
2017-11-17T02:15:41.395Z,91.60
2017-11-17T02:18:09.451Z,91.60
2017-11-17T02:20:38.284Z,91.90
2017-11-17T02:23:07.102Z,91.90
2017-11-17T02:25:35.183Z,91.40
2017-11-17T02:28:03.239Z,91.70
2017-11-17T02:30:31.314Z,91.70
2017-11-17T02:32:59.388Z,91.90
2017-11-17T02:35:27.439Z,91.60
2017-11-17T02:37:55.521Z,91.60
2017-11-17T02:40:23.596Z,91.60
2017-11-17T02:42:52.423Z,91.70
2017-11-17T02:45:21.624Z,91.80
2017-11-17T02:47:49.694Z,91.80
2017-11-17T02:50:18.166Z,91.60
2017-11-17T02:52:46.232Z,91.80
2017-11-17T02:55:14.266Z,91.70
2017-11-17T02:57:42.437Z,91.80
2017-11-17T03:00:11.253Z,91.90
2017-11-17T03:02:39.394Z,91.60
2017-11-17T03:05:08.227Z,91.70
2017-11-17T03:07:36.679Z,91.30
2017-11-17T03:10:04.748Z,91.50
2017-11-17T03:12:32.812Z,91.40
2017-11-17T03:15:01.642Z,92.10
2017-11-17T03:17:29.707Z,91.80
2017-11-17T03:19:57.764Z,91.80
2017-11-17T03:22:25.834Z,91.70
2017-11-17T03:24:53.882Z,91.70
2017-11-17T03:27:23.114Z,91.80
2017-11-17T03:32:20.485Z,92.00
2017-11-17T03:34:48.550Z,91.90
2017-11-17T03:37:16.606Z,91.70
2017-11-17T03:39:46.177Z,91.70
2017-11-17T03:42:14.226Z,91.80
2017-11-17T03:44:42.314Z,91.80
2017-11-17T03:47:10.370Z,91.70
2017-11-17T03:49:38.452Z,91.70
2017-11-17T03:52:06.498Z,91.70
2017-11-17T03:54:34.570Z,91.80
2017-11-17T03:57:03.395Z,91.80
2017-11-17T03:59:31.450Z,91.70
2017-11-17T04:01:59.514Z,91.70
2017-11-17T04:04:27.586Z,91.90
2017-11-17T04:06:55.649Z,91.90
2017-11-17T04:09:23.701Z,91.90
2017-11-17T04:11:51.750Z,91.90
2017-11-17T04:14:20.583Z,92.30
2017-11-17T04:16:48.642Z,92.00
2017-11-17T04:19:16.694Z,91.90
2017-11-17T04:21:44.761Z,92.00
2017-11-17T04:26:42.169Z,92.00
2017-11-17T04:29:10.241Z,92.20
2017-11-17T04:31:39.434Z,92.30
2017-11-17T04:34:07.491Z,92.00
2017-11-17T04:39:04.870Z,92.00
2017-11-17T04:41:33.709Z,92.00
2017-11-17T04:44:01.775Z,92.00
2017-11-17T04:46:29.829Z,91.90
2017-11-17T04:51:27.617Z,91.80
2017-11-17T04:53:56.078Z,91.60
2017-11-17T04:58:54.626Z,91.80
2017-11-17T05:01:23.458Z,92.20
2017-11-17T05:03:51.510Z,91.70
2017-11-17T05:06:21.090Z,91.60
2017-11-17T05:08:49.542Z,91.80
2017-11-17T05:11:17.595Z,91.80
2017-11-17T05:13:47.166Z,91.50
2017-11-17T05:16:15.990Z,91.50
2017-11-17T05:18:44.067Z,91.50
2017-11-17T05:21:12.174Z,91.50
2017-11-17T05:23:40.226Z,91.50
2017-11-17T05:26:09.066Z,91.50
2017-11-17T05:28:37.886Z,91.70
2017-11-17T05:31:06.351Z,91.50
2017-11-17T05:33:34.403Z,93.70
2017-11-17T05:36:03.240Z,94.60
2017-11-17T05:38:31.294Z,93.50
2017-11-17T05:43:28.682Z,90.00
2017-11-17T05:45:56.744Z,87.00
2017-11-17T05:48:24.893Z,83.10
2017-11-17T05:50:53.711Z,79.70
2017-11-17T05:53:22.930Z,80.40
2017-11-17T05:55:50.983Z,81.00
2017-11-17T05:58:19.039Z,77.60
2017-11-17T06:00:47.502Z,78.20
2017-11-17T06:08:14.230Z,83.70
2017-11-17T06:10:42.300Z,86.10
2017-11-17T06:13:10.356Z,88.20
2017-11-17T06:15:38.841Z,89.80
2017-11-17T06:18:06.886Z,90.40
2017-11-17T06:20:34.943Z,90.60
2017-11-17T06:25:32.340Z,91.00
2017-11-17T06:28:00.411Z,91.50
2017-11-17T06:30:28.470Z,91.50
2017-11-17T06:32:56.543Z,91.40
2017-11-17T06:35:24.602Z,91.50
2017-11-17T06:37:53.421Z,91.50
2017-11-17T06:40:21.483Z,91.60
2017-11-17T06:42:49.538Z,91.70
2017-11-17T06:45:17.998Z,91.90
2017-11-17T06:47:46.050Z,92.00
2017-11-17T06:50:15.626Z,92.30
2017-11-17T06:52:43.682Z,91.60
2017-11-17T06:55:11.763Z,91.70
2017-11-17T06:57:39.819Z,91.60
2017-11-17T07:00:07.886Z,91.50
2017-11-17T07:02:36.710Z,91.50
2017-11-17T07:05:06.285Z,91.70
2017-11-17T07:07:34.338Z,91.60
2017-11-17T07:10:03.174Z,91.80
2017-11-17T07:12:31.230Z,91.80
2017-11-17T07:14:59.306Z,91.80
2017-11-17T07:17:27.374Z,91.60
2017-11-17T07:19:55.430Z,91.70
2017-11-17T07:22:23.503Z,91.60
2017-11-17T07:24:51.554Z,91.60
2017-11-17T07:27:20.402Z,91.80
2017-11-17T07:29:48.454Z,91.60
2017-11-17T07:32:16.522Z,91.60
2017-11-17T07:34:44.587Z,91.60
2017-11-17T07:37:12.646Z,91.70
2017-11-17T07:39:41.482Z,92.00
2017-11-17T07:42:09.548Z,92.10
2017-11-17T07:47:06.935Z,92.40
2017-11-17T07:49:35.026Z,91.90
2017-11-17T07:52:03.097Z,92.10
2017-11-17T07:54:31.146Z,92.10
2017-11-17T07:56:59.606Z,92.30
2017-11-17T07:59:28.427Z,92.20
2017-11-17T08:01:56.895Z,92.10
2017-11-17T08:04:24.969Z,92.20
2017-11-17T08:06:53.031Z,91.90
2017-11-17T08:09:21.864Z,91.90
2017-11-17T08:11:50.701Z,91.40
2017-11-17T08:14:18.767Z,91.20
2017-11-17T08:16:46.834Z,91.50
2017-11-17T08:19:14.898Z,91.40
2017-11-17T08:21:43.354Z,91.70
2017-11-17T08:24:12.192Z,92.00
2017-11-17T08:26:41.018Z,92.10
2017-11-17T08:29:09.078Z,92.00
2017-11-17T08:31:37.146Z,92.00
2017-11-17T08:34:05.212Z,91.40
2017-11-17T08:36:33.282Z,91.80
2017-11-17T08:39:01.334Z,91.80
2017-11-17T08:41:30.170Z,91.90
2017-11-17T08:46:27.546Z,91.80
2017-11-17T08:48:55.603Z,91.50
2017-11-17T08:51:25.188Z,91.60
2017-11-17T08:56:23.047Z,90.50
2017-11-17T08:58:51.859Z,91.00
2017-11-17T09:01:19.922Z,90.70
2017-11-17T09:03:47.985Z,90.90
2017-11-17T09:06:16.046Z,91.00
2017-11-17T09:08:44.121Z,90.80
2017-11-17T09:11:12.939Z,90.80
2017-11-17T09:13:41.007Z,91.00
2017-11-17T09:16:09.079Z,91.10
2017-11-17T09:18:37.134Z,90.90
2017-11-17T09:21:05.211Z,91.10
2017-11-17T09:23:33.301Z,91.00
2017-11-17T09:26:01.330Z,90.40
2017-11-17T09:28:29.406Z,90.60
2017-11-17T09:30:57.464Z,90.70
2017-11-17T09:33:26.301Z,91.00
2017-11-17T09:35:55.110Z,90.60
2017-11-17T09:38:23.587Z,90.80
2017-11-17T09:40:51.646Z,90.90
2017-11-17T09:43:19.705Z,91.20
2017-11-17T09:45:47.767Z,91.20
2017-11-17T09:48:15.833Z,91.20
2017-11-17T09:50:45.414Z,91.00
2017-11-17T09:53:14.263Z,91.40
2017-11-17T09:55:42.341Z,91.30
2017-11-17T09:58:11.158Z,91.50
2017-11-17T10:00:39.995Z,91.10
2017-11-17T10:03:08.048Z,91.50
2017-11-17T10:05:36.122Z,91.60
2017-11-17T10:08:04.178Z,91.60
2017-11-17T10:10:33.014Z,91.80
2017-11-17T10:13:01.074Z,91.30
2017-11-17T10:15:29.141Z,91.10
2017-11-17T10:17:57.198Z,91.20
2017-11-17T10:20:25.257Z,91.00
2017-11-17T10:22:54.091Z,91.20
2017-11-17T10:25:22.169Z,90.80
2017-11-17T10:27:50.242Z,90.50
2017-11-17T10:30:19.331Z,90.00
2017-11-17T10:32:47.372Z,90.20
2017-11-17T10:35:15.422Z,90.50
2017-11-17T10:37:44.267Z,92.00
2017-11-17T10:40:12.332Z,91.70
2017-11-17T10:42:40.395Z,90.80
2017-11-17T10:45:09.241Z,90.20
2017-11-17T10:47:38.058Z,90.50
2017-11-17T10:50:06.119Z,90.10
2017-11-17T10:52:34.573Z,90.20
2017-11-17T10:55:03.397Z,90.60
2017-11-17T10:57:31.477Z,90.80
2017-11-17T10:59:59.535Z,91.40
2017-11-17T11:02:27.614Z,91.50
2017-11-17T11:04:55.669Z,91.20
2017-11-17T11:09:53.077Z,91.70
2017-11-17T11:12:21.142Z,91.20
2017-11-17T11:14:49.214Z,90.60
2017-11-17T11:17:17.276Z,90.70
2017-11-17T11:19:45.344Z,90.90
2017-11-17T11:22:13.407Z,90.80
2017-11-17T11:24:41.466Z,90.70
2017-11-17T11:27:10.290Z,90.90
2017-11-17T11:29:38.350Z,90.10
2017-11-17T11:32:06.425Z,89.80
2017-11-17T11:34:34.476Z,90.20
2017-11-17T11:37:02.949Z,90.50
2017-11-17T11:39:31.769Z,90.30
2017-11-17T11:41:59.850Z,90.00
2017-11-17T11:44:27.902Z,90.10
2017-11-17T11:46:55.970Z,89.40
2017-11-17T11:49:24.790Z,90.40
2017-11-17T11:51:52.842Z,90.00
2017-11-17T11:54:22.059Z,90.50
2017-11-17T11:56:50.122Z,90.10
2017-11-17T11:59:18.185Z,90.40
2017-11-17T12:01:46.254Z,90.20
2017-11-17T12:04:17.198Z,90.90
2017-11-17T12:06:45.275Z,90.40
2017-11-17T12:09:13.329Z,90.60
2017-11-17T12:11:41.390Z,90.60
2017-11-17T12:14:10.226Z,90.90
2017-11-17T12:16:38.274Z,90.30
2017-11-17T12:19:06.333Z,89.90
2017-11-17T12:21:34.401Z,90.40
2017-11-17T12:24:02.470Z,90.40
2017-11-17T12:26:32.042Z,90.30
2017-11-17T12:29:00.126Z,89.80
2017-11-17T12:31:28.199Z,90.00
2017-11-17T12:33:57.837Z,90.10
2017-11-17T12:36:26.678Z,90.00
2017-11-17T12:38:54.737Z,90.10
2017-11-17T12:41:22.800Z,90.30
2017-11-17T12:43:50.879Z,90.60
2017-11-17T12:46:18.958Z,90.70
2017-11-17T12:48:47.026Z,90.50
2017-11-17T12:51:15.102Z,90.40
2017-11-17T12:53:43.164Z,90.10
2017-11-17T12:56:11.230Z,90.00
2017-11-17T12:58:39.710Z,90.50
2017-11-17T13:01:07.790Z,90.60
2017-11-17T13:03:35.838Z,90.00
2017-11-17T13:06:03.899Z,90.30
2017-11-17T13:08:31.974Z,90.40
2017-11-17T13:11:00.047Z,90.60
2017-11-17T13:13:28.105Z,90.60
2017-11-17T13:18:25.498Z,90.70
2017-11-17T13:20:54.707Z,90.80
2017-11-17T13:23:23.528Z,90.60
2017-11-17T13:25:51.598Z,90.40
2017-11-17T13:28:19.651Z,90.40
2017-11-17T13:30:47.707Z,90.30
2017-11-17T13:33:15.776Z,89.90
2017-11-17T13:35:43.843Z,89.50
2017-11-17T13:38:11.913Z,88.70
2017-11-17T13:40:39.982Z,89.00
2017-11-17T13:43:08.433Z,88.80
2017-11-17T13:45:37.258Z,89.00
2017-11-17T13:48:05.327Z,88.80
2017-11-17T13:50:33.401Z,88.80
2017-11-17T13:53:01.450Z,88.60
2017-11-17T13:55:29.932Z,88.70
2017-11-17T13:57:58.390Z,89.10
2017-11-17T14:00:26.454Z,89.60
2017-11-17T14:02:55.658Z,90.30
2017-11-17T14:05:23.722Z,90.40
2017-11-17T14:07:51.786Z,90.30
2017-11-17T14:10:19.851Z,90.20
2017-11-17T14:12:47.926Z,89.90
2017-11-17T14:15:15.986Z,90.60
2017-11-17T14:17:44.046Z,90.20
2017-11-17T14:20:12.112Z,90.30
2017-11-17T14:22:40.165Z,90.70
2017-11-17T14:25:08.625Z,90.80
2017-11-17T14:27:38.215Z,90.90
2017-11-17T14:30:06.287Z,90.40
2017-11-17T14:32:34.746Z,90.20
2017-11-17T14:35:02.827Z,90.90
2017-11-17T14:37:30.914Z,91.50
2017-11-17T14:39:58.970Z,91.10
2017-11-17T14:42:27.029Z,90.70
2017-11-17T14:44:55.506Z,90.70
2017-11-17T14:47:23.561Z,91.00
2017-11-17T14:49:51.618Z,90.70
2017-11-17T14:52:19.685Z,90.70
2017-11-17T14:54:47.745Z,90.70
2017-11-17T14:57:16.585Z,91.00
2017-11-17T14:59:45.055Z,90.90
2017-11-17T15:02:13.144Z,91.00
2017-11-17T15:04:41.195Z,91.20
2017-11-17T15:07:09.251Z,90.90
2017-11-17T15:09:38.097Z,90.90
2017-11-17T15:12:06.562Z,91.10
2017-11-17T15:14:34.619Z,91.10
2017-11-17T15:17:02.696Z,91.00
2017-11-17T15:19:30.770Z,91.10
2017-11-17T15:21:59.597Z,91.20
2017-11-17T15:24:29.174Z,91.50
2017-11-17T15:26:57.230Z,91.80
2017-11-17T15:29:25.311Z,91.70
2017-11-17T15:31:53.775Z,91.30
2017-11-17T15:34:22.983Z,91.40
2017-11-17T15:36:51.067Z,91.40
2017-11-17T15:39:19.140Z,91.40
2017-11-17T15:41:47.214Z,91.20
2017-11-17T15:44:16.062Z,92.20
2017-11-17T15:46:44.122Z,92.10
2017-11-17T15:49:12.968Z,92.70
2017-11-17T15:51:41.409Z,93.00
2017-11-17T15:54:09.483Z,93.00
2017-11-17T15:56:38.331Z,93.20
2017-11-17T15:59:07.893Z,93.90
2017-11-17T16:01:35.965Z,93.10
2017-11-17T16:04:04.020Z,93.00
2017-11-17T16:06:32.100Z,93.20
2017-11-17T16:09:00.165Z,93.00
2017-11-17T16:11:28.226Z,92.80
2017-11-17T16:13:57.521Z,92.70
2017-11-17T16:16:26.342Z,93.20
2017-11-17T16:18:54.413Z,93.20
2017-11-17T16:21:22.470Z,93.20
2017-11-17T16:23:50.539Z,93.10
2017-11-17T16:26:18.626Z,93.00
2017-11-17T16:28:47.449Z,93.20
2017-11-17T16:31:15.506Z,93.10
2017-11-17T16:33:43.589Z,92.90
2017-11-17T16:36:12.438Z,92.60
2017-11-17T16:38:40.499Z,92.50
2017-11-17T16:41:09.327Z,92.40
2017-11-17T16:43:37.439Z,92.40
2017-11-17T16:46:06.279Z,92.80
2017-11-17T16:48:34.373Z,92.40
2017-11-17T16:51:03.188Z,92.60
2017-11-17T16:53:32.031Z,92.90
2017-11-17T16:56:00.092Z,92.40
2017-11-17T16:58:28.157Z,92.60
2017-11-17T17:00:56.235Z,92.60
2017-11-17T17:03:24.295Z,92.90
2017-11-17T17:08:21.693Z,92.80
2017-11-17T17:10:49.750Z,92.40
2017-11-17T17:13:17.833Z,92.60
2017-11-17T17:15:45.892Z,92.70
2017-11-17T17:18:13.962Z,92.40
2017-11-17T17:20:42.795Z,92.10
2017-11-17T17:23:11.262Z,92.40
2017-11-17T17:25:39.350Z,92.10
2017-11-17T17:28:07.386Z,92.10
2017-11-17T17:30:36.222Z,92.30
2017-11-17T17:33:04.281Z,92.30
2017-11-17T17:35:33.882Z,92.60
2017-11-17T17:38:01.947Z,92.30
2017-11-17T17:40:30.005Z,92.50
2017-11-17T17:42:58.073Z,92.40
2017-11-17T17:45:26.129Z,92.50
2017-11-17T17:47:54.202Z,92.50
2017-11-17T17:50:22.266Z,92.40
2017-11-17T17:52:50.738Z,92.40
2017-11-17T17:57:48.129Z,92.30
2017-11-17T18:00:16.206Z,92.20
2017-11-17T18:08:13.566Z,92.20
2017-11-17T18:10:41.626Z,92.00
2017-11-17T18:13:10.100Z,92.10
2017-11-17T18:15:38.162Z,91.80
2017-11-17T18:18:06.238Z,91.80
2017-11-17T18:20:34.306Z,91.80
2017-11-17T18:23:02.417Z,92.10
2017-11-17T18:25:31.219Z,92.10
2017-11-17T18:27:59.269Z,92.10
2017-11-17T18:30:27.406Z,92.50
2017-11-17T18:32:55.432Z,92.40
2017-11-17T18:35:23.483Z,92.60
2017-11-17T18:37:52.367Z,92.50
2017-11-17T18:40:21.152Z,93.20
2017-11-17T18:42:49.693Z,92.90
2017-11-17T18:45:18.528Z,92.90
2017-11-17T18:47:47.332Z,92.40
2017-11-17T18:50:15.389Z,92.60
2017-11-17T18:52:43.503Z,92.50
2017-11-17T18:55:11.534Z,92.50
2017-11-17T18:57:39.629Z,92.50
2017-11-17T19:00:07.679Z,92.50
2017-11-17T19:02:35.746Z,92.50
2017-11-17T19:05:03.827Z,92.30
2017-11-17T19:07:31.934Z,92.20
2017-11-17T19:09:59.973Z,92.30
2017-11-17T19:12:28.094Z,92.50
2017-11-17T19:14:56.136Z,92.20
2017-11-17T19:17:24.196Z,92.00
2017-11-17T19:19:52.273Z,91.70
2017-11-17T19:22:20.361Z,91.60
2017-11-17T19:24:49.571Z,92.10
2017-11-17T19:27:18.064Z,92.40
2017-11-17T19:29:46.904Z,92.70
2017-11-17T19:32:14.970Z,92.40
2017-11-17T19:34:43.059Z,92.40
2017-11-17T19:37:11.131Z,92.50
2017-11-17T19:39:40.300Z,92.20
2017-11-17T19:42:08.367Z,92.30
2017-11-17T19:47:06.557Z,93.10
2017-11-17T19:49:34.639Z,92.90
2017-11-17T19:52:02.719Z,92.80
2017-11-17T19:54:30.793Z,92.50
2017-11-17T19:56:58.885Z,92.00
2017-11-17T19:59:26.965Z,91.90
2017-11-17T20:01:55.821Z,92.00
2017-11-17T20:04:25.033Z,92.30
2017-11-17T20:06:53.091Z,92.20
2017-11-17T20:09:21.175Z,92.40
2017-11-17T20:11:49.248Z,92.40
2017-11-17T20:14:17.334Z,92.40
2017-11-17T20:16:47.077Z,92.70
2017-11-17T20:19:16.770Z,92.90
2017-11-17T20:21:52.080Z,93.20
2017-11-17T20:24:20.163Z,92.80
2017-11-17T20:26:49.800Z,92.80
2017-11-17T20:29:17.869Z,92.70
2017-11-17T20:31:45.944Z,92.80
2017-11-17T20:34:14.787Z,93.00
2017-11-17T20:36:43.791Z,92.80
2017-11-17T20:39:11.879Z,92.70
2017-11-17T20:41:39.951Z,92.50
2017-11-17T20:44:08.031Z,92.40
2017-11-17T20:46:36.103Z,92.30
2017-11-17T20:49:04.879Z,92.40
2017-11-17T20:51:33.721Z,92.80
2017-11-17T20:54:01.792Z,92.90
2017-11-17T20:56:29.873Z,93.10
2017-11-17T20:58:57.967Z,92.80
2017-11-17T21:01:26.031Z,92.30
2017-11-17T21:03:54.104Z,91.90
2017-11-17T21:06:22.584Z,92.10
2017-11-17T21:08:52.203Z,92.10
2017-11-17T21:11:20.306Z,92.50
2017-11-17T21:13:49.136Z,92.70
2017-11-17T21:16:17.212Z,92.50
2017-11-17T21:18:46.445Z,92.50
2017-11-17T21:21:14.500Z,92.10
2017-11-17T21:23:42.558Z,92.20
2017-11-17T21:26:10.636Z,92.00
2017-11-17T21:28:38.710Z,92.20
2017-11-17T21:31:06.800Z,92.30
2017-11-17T21:33:34.891Z,92.20
2017-11-17T21:36:02.977Z,92.10
2017-11-17T21:38:31.812Z,92.70
2017-11-17T21:40:59.902Z,92.70
2017-11-17T21:43:27.972Z,92.50
2017-11-17T21:45:56.803Z,92.70
2017-11-17T21:48:24.886Z,92.80
2017-11-17T21:50:52.959Z,92.50
2017-11-17T21:53:21.043Z,92.60
2017-11-17T21:55:49.110Z,92.70
2017-11-17T21:58:17.189Z,92.50
2017-11-17T22:00:45.254Z,92.50
2017-11-17T22:03:13.339Z,92.40
2017-11-17T22:05:41.428Z,92.50
2017-11-17T22:08:10.267Z,92.60
2017-11-17T22:10:39.111Z,92.60
2017-11-17T22:13:07.951Z,92.60
2017-11-17T22:15:36.031Z,92.50
2017-11-17T22:18:04.099Z,92.50
2017-11-17T22:20:33.686Z,92.70
2017-11-17T22:23:01.756Z,92.70
2017-11-17T22:25:29.836Z,92.50
2017-11-17T22:27:58.736Z,92.70
2017-11-17T22:30:26.806Z,92.80
2017-11-17T22:35:24.224Z,93.10
2017-11-17T22:37:52.309Z,93.00
2017-11-17T22:40:20.374Z,92.50
2017-11-17T22:42:48.438Z,92.70
2017-11-17T22:45:16.528Z,92.60
2017-11-17T22:47:44.591Z,92.70
2017-11-17T22:50:12.673Z,92.50
2017-11-17T22:52:40.730Z,92.10
2017-11-17T22:55:08.903Z,91.60
2017-11-17T22:57:36.990Z,92.00
2017-11-17T23:00:05.050Z,91.80
2017-11-17T23:02:34.242Z,91.20
2017-11-17T23:05:02.314Z,91.40
2017-11-17T23:07:30.396Z,91.20
2017-11-17T23:09:58.458Z,91.70
2017-11-17T23:12:26.529Z,92.10
2017-11-17T23:14:56.120Z,92.10
2017-11-17T23:17:24.188Z,92.10
2017-11-17T23:19:52.242Z,92.20
2017-11-17T23:22:21.454Z,92.20
2017-11-17T23:24:49.511Z,91.90
2017-11-17T23:27:18.382Z,92.10
2017-11-17T23:29:46.443Z,91.80
2017-11-17T23:32:14.509Z,91.10
2017-11-17T23:34:42.594Z,91.40
2017-11-17T23:37:10.663Z,91.50
2017-11-17T23:39:38.818Z,91.50
2017-11-17T23:42:06.891Z,91.40
2017-11-17T23:44:34.997Z,91.30
2017-11-17T23:47:04.579Z,91.50
2017-11-17T23:49:33.421Z,91.40
2017-11-17T23:52:01.493Z,91.40
2017-11-17T23:54:29.562Z,91.60
2017-11-17T23:56:57.631Z,91.90
2017-11-17T23:59:25.710Z,92.20
